createdAt,value
2022-11-15T00:00:44.825Z,29.9
2022-11-15T00:06:52.357Z,26.5
2022-11-15T00:13:09.022Z,28
2022-11-15T00:19:23.020Z,26.7
2022-11-15T00:25:32.134Z,27.2
2022-11-15T00:31:37.745Z,25.9
2022-11-15T00:37:49.186Z,26.5
2022-11-15T00:49:57.466Z,23.5
2022-11-15T00:56:06.043Z,24.4
2022-11-15T01:02:07.510Z,22.6
2022-11-15T01:09:32.872Z,23.3
2022-11-15T01:15:31.070Z,21.8
2022-11-15T01:21:40.046Z,18.7
2022-11-15T01:27:36.908Z,18.9
2022-11-15T01:33:40.238Z,19.2
2022-11-15T01:39:58.291Z,19.7
2022-11-15T01:45:48.191Z,18.5
2022-11-15T01:51:45.293Z,18
2022-11-15T01:57:54.204Z,19.1
2022-11-15T02:03:55.863Z,20
2022-11-15T02:09:57.202Z,17.6
2022-11-15T02:15:48.857Z,16
2022-11-15T02:22:00.403Z,17.1
2022-11-15T02:27:56.641Z,18.2
2022-11-15T02:33:56.533Z,18.9
2022-11-15T02:39:56.000Z,20.3
2022-11-15T02:45:50.641Z,20.9
2022-11-15T02:52:09.183Z,19.5
2022-11-15T02:58:09.769Z,22.3
2022-11-15T03:04:08.562Z,19.5
2022-11-15T03:10:02.501Z,17.1
2022-11-15T03:15:55.251Z,18.7
2022-11-15T03:21:59.029Z,18.7
2022-11-15T03:28:01.548Z,17.7
2022-11-15T03:34:06.133Z,20.8
2022-11-15T03:40:08.071Z,18.9
2022-11-15T03:46:07.685Z,18.3
2022-11-15T03:52:23.296Z,19.2
2022-11-15T03:58:26.487Z,18.5
2022-11-15T04:04:24.710Z,17.8
2022-11-15T04:10:41.017Z,17.7
2022-11-15T04:17:00.103Z,19.2
2022-11-15T04:23:10.266Z,16.7
2022-11-15T04:29:10.045Z,17.2
2022-11-15T04:35:31.971Z,16
2022-11-15T04:41:47.920Z,15.8
2022-11-15T04:47:52.381Z,18.8
2022-11-15T04:54:05.525Z,14.9
2022-11-15T05:00:12.515Z,15.5
2022-11-15T05:12:16.247Z,12.6
2022-11-15T05:18:20.791Z,13.7
2022-11-15T05:24:57.102Z,13.5
2022-11-15T05:30:53.318Z,13.6
2022-11-15T05:36:59.019Z,11.9
2022-11-15T05:43:14.764Z,12.4
2022-11-15T05:49:17.049Z,9.6
2022-11-15T05:55:07.975Z,10.9
2022-11-15T06:00:59.962Z,11.4
2022-11-15T06:06:59.278Z,9.6
2022-11-15T06:13:06.050Z,11
2022-11-15T06:18:58.975Z,11.5
2022-11-15T06:25:11.714Z,11.4
2022-11-15T06:31:08.990Z,11.8
2022-11-15T06:37:13.000Z,16.4
2022-11-15T06:43:24.777Z,14
2022-11-15T06:55:40.607Z,10.6
2022-11-15T07:01:32.861Z,12.8
2022-11-15T07:07:25.685Z,14.7
2022-11-15T07:13:36.112Z,12.6
2022-11-15T07:19:30.649Z,12.6
2022-11-15T07:25:29.172Z,13.1
2022-11-15T07:31:23.114Z,13.9
2022-11-15T07:37:16.192Z,11.4
2022-11-15T07:43:14.704Z,10.2
2022-11-15T07:49:07.077Z,8.9
2022-11-15T07:54:58.193Z,10.2
2022-11-15T08:01:02.637Z,9.8
2022-11-15T08:06:53.145Z,9.7
2022-11-15T08:12:49.949Z,10.3
2022-11-15T08:19:01.056Z,10.9
2022-11-15T08:24:50.968Z,8.1
2022-11-15T08:30:55.572Z,8.5
2022-11-15T08:36:51.199Z,10.4
2022-11-15T08:42:49.438Z,9.4
2022-11-15T08:48:43.349Z,9.9
2022-11-15T08:54:46.498Z,7.7
2022-11-15T09:00:42.767Z,5.4
2022-11-15T09:06:50.409Z,8.3
2022-11-15T09:12:56.212Z,5.9
2022-11-15T09:18:46.005Z,8.2
2022-11-15T09:24:50.565Z,5.6
2022-11-15T09:30:43.164Z,8.8
2022-11-15T09:36:33.696Z,6.8
2022-11-15T09:42:28.494Z,3.1
2022-11-15T09:48:24.025Z,4.2
2022-11-15T09:54:58.620Z,5
2022-11-15T10:00:58.227Z,6.7
2022-11-15T10:06:54.897Z,7.7
2022-11-15T10:12:50.096Z,8
2022-11-15T10:18:52.784Z,2.5
2022-11-15T10:24:46.093Z,5.9
2022-11-15T10:31:11.947Z,6.7
2022-11-15T10:37:07.228Z,5.4
2022-11-15T10:43:15.987Z,5.3
2022-11-15T10:49:19.901Z,3.3
2022-11-15T10:55:16.212Z,4.1
2022-11-15T11:01:14.173Z,3.7
2022-11-15T11:07:11.298Z,4
2022-11-15T11:13:21.143Z,4.3
2022-11-15T11:19:12.031Z,5
2022-11-15T11:25:10.086Z,3.9
2022-11-15T11:31:18.670Z,6.7
2022-11-15T11:37:21.980Z,7.3
2022-11-15T11:43:17.076Z,5.4
2022-11-15T11:49:10.558Z,3.9
2022-11-15T11:55:03.204Z,5.3
2022-11-15T12:00:56.958Z,5.9
2022-11-15T12:06:55.973Z,7.8
2022-11-15T12:12:46.981Z,6.9
2022-11-15T12:18:46.085Z,6.8
2022-11-15T12:24:56.689Z,10.2
2022-11-15T12:31:26.200Z,5.9
2022-11-15T12:43:25.943Z,6.9
2022-11-15T12:49:23.432Z,8.3
2022-11-15T13:08:44.164Z,12.2
2022-11-15T13:23:05.822Z,11.1
2022-11-15T13:29:00.491Z,11.8
2022-11-15T13:35:02.738Z,6.9
2022-11-15T13:40:54.144Z,7.7
2022-11-15T13:46:52.381Z,7.2
2022-11-15T13:59:06.808Z,4.8
2022-11-15T14:05:14.223Z,5.9
2022-11-15T14:11:04.745Z,4.7
2022-11-15T14:16:56.901Z,3.7
2022-11-15T14:22:54.630Z,4.3
2022-11-15T14:28:47.391Z,5.6
2022-11-15T14:34:45.099Z,5.9
2022-11-15T14:40:38.192Z,3.4
2022-11-15T14:46:31.592Z,4.8
2022-11-15T14:52:39.247Z,4.3
2022-11-15T14:58:31.312Z,5.4
2022-11-15T15:04:50.766Z,7.9
2022-11-15T15:10:53.987Z,6.7
2022-11-15T15:16:56.576Z,5.5
2022-11-15T15:23:02.691Z,4.8
2022-11-15T15:29:01.914Z,5.7
2022-11-15T15:35:10.936Z,3.7
2022-11-15T15:41:26.498Z,5
2022-11-15T15:47:17.225Z,4
2022-11-15T15:53:13.878Z,6.1
2022-11-15T15:59:11.362Z,6
2022-11-15T16:05:02.702Z,8
2022-11-15T16:10:54.142Z,5.7
2022-11-15T16:16:45.820Z,6.4
2022-11-15T16:23:17.903Z,11.8
2022-11-15T16:29:37.793Z,7.7
2022-11-15T16:35:29.980Z,8.2
2022-11-15T16:41:22.483Z,7.7
2022-11-15T16:47:21.104Z,5.6
2022-11-15T16:53:20.907Z,6
2022-11-15T16:59:10.205Z,5.4
2022-11-15T17:05:11.077Z,6.5
2022-11-15T17:11:08.863Z,5.8
2022-11-15T17:17:01.169Z,6.1
2022-11-15T17:22:54.800Z,6.1
2022-11-15T17:28:45.367Z,6.3
2022-11-15T17:34:38.671Z,7.4
2022-11-15T17:40:29.089Z,8.5
2022-11-15T17:46:19.170Z,8.5
2022-11-15T17:52:08.630Z,7.6
2022-11-15T17:58:04.671Z,8
2022-11-15T18:03:54.163Z,8.4
2022-11-15T18:09:46.490Z,8.7
2022-11-15T18:15:44.000Z,8.5
2022-11-15T18:21:47.145Z,7.3
2022-11-15T18:27:37.824Z,7.7
2022-11-15T18:33:35.951Z,9.1
2022-11-15T18:39:36.646Z,8.1
2022-11-15T18:45:54.547Z,8.7
2022-11-15T18:52:02.450Z,8.2
2022-11-15T18:57:53.687Z,8.8
2022-11-15T19:03:45.839Z,9.1
2022-11-15T19:09:38.224Z,8.8
2022-11-15T19:15:33.195Z,8.4
2022-11-15T19:21:26.196Z,8.1
2022-11-15T19:27:25.236Z,8.3
2022-11-15T19:33:20.811Z,8.8
2022-11-15T19:39:20.262Z,10.2
2022-11-15T19:45:27.406Z,9.4
2022-11-15T19:51:41.766Z,6.7
2022-11-15T19:57:32.941Z,9
2022-11-15T20:03:28.086Z,6.7
2022-11-15T20:09:22.720Z,8.4
2022-11-15T20:15:22.817Z,8.1
2022-11-15T20:21:17.837Z,11.9
2022-11-15T20:27:18.864Z,15.2
2022-11-15T20:33:09.129Z,8.6
2022-11-15T20:39:03.486Z,8.5
2022-11-15T20:44:57.855Z,8.2
2022-11-15T20:56:57.564Z,9
2022-11-15T21:02:49.126Z,8.4
2022-11-15T21:08:42.374Z,7.4
2022-11-15T21:14:33.388Z,7.7
2022-11-15T21:20:23.899Z,9.4
2022-11-15T21:26:15.833Z,8.1
2022-11-15T21:32:15.206Z,8.8
2022-11-15T21:38:07.223Z,6.8
2022-11-15T21:43:58.722Z,12.7
2022-11-15T21:49:54.329Z,9.1
2022-11-15T21:55:47.834Z,7.1
2022-11-15T22:01:38.837Z,8.3
2022-11-15T22:07:32.961Z,9.1
2022-11-15T22:13:28.452Z,9.2
2022-11-15T22:19:18.773Z,8.6
2022-11-15T22:25:10.731Z,11.1
2022-11-15T22:31:05.025Z,10.1
2022-11-15T22:37:24.478Z,11.2
2022-11-15T22:43:11.817Z,12.9
2022-11-15T22:49:09.027Z,10.8
2022-11-15T22:55:00.240Z,14.2
2022-11-15T23:00:47.976Z,12.4
2022-11-15T23:06:38.816Z,15.8
2022-11-15T23:12:29.528Z,14.3
2022-11-15T23:18:24.905Z,14.9
2022-11-15T23:24:14.163Z,17.8
2022-11-15T23:30:05.723Z,14.5
2022-11-15T23:35:54.428Z,16.6
2022-11-15T23:41:44.310Z,15.5
2022-11-15T23:47:33.886Z,15.6
2022-11-15T23:54:35.131Z,18.2
